KPOC/POC METAR and TAF weather

Enter ICAO airport designator
Station Type Date Time Source
KPOC METAR 2022/06/26 03:47 UTC NOAA

KPOC 260347Z 26008KT 10SM CLR 24/11 A2992 RMK LAST


Station Type Date Time Source
KPOC Decoded METAR 2022/06/26 03:47 UTC NOAA

La Verne / Brackett, CA, United States (KPOC) 34-06N 117-47W
Jun 25, 2022 - 11:47 PM EDT / 2022.06.26 0347 UTC
Wind: from the W (260 degrees) at 9 MPH (8 KT):0
Visibility: 10 mile(s):0
Sky conditions: clear
Temperature: 75 F (24 C)
Dew Point: 51 F (11 C)
Relative Humidity: 43%
Pressure (altimeter): 29.92 in. Hg (1013 hPa)
ob: KPOC 260347Z 26008KT 10SM CLR 24/11 A2992 RMK LAST
cycle: 4

Station Type Date Time Source
KPOC TAF UTC NOAA

Error!

Example: see airport list